ESNK

Kramfors Sollefteå Airport

Kramfors / Sollefteå, Sweden
METAR ESNK 172050Z AUTO 01001KT 9999 NCD M13/M14 Q1009
Observed Flight Rules
Dec-17 @ 20:50 UTC (40 minutes ago) Visual Flight Rules
Wind Visibility Clouds
10° at 1 knots 10,000+ meters
  • Clear skies
Temperatures Readings
Current -13°C / 9°F
Dewpoint -14°C / 7°F
Humidity 92%
Altimeter 29.79" Hg
Pressure 1009 hPa
Elevation 19
METAR ESNK 172050Z AUTO 01001KT 9999 NCD M13/M14 Q1009
Observed Flight Rules
Dec-17 @ 20:50 UTC
(40 minutes ago)
VFR
Wind Visibility
10° at 1 knots 10,000+ meters
Clouds
  • Clear skies
Temperature Dewpoint
-13°C / 9°F -14°C / 7°F
Humidity Altimeter Pressure
92% 29.79" Hg 1009 hPa